Back to Top

Language: 

My Weather Underground Personal Weather Station Historical Data with Graphs...

Delerius Weather Station Historical Data
Daily Summary for March 8, 2018 Units:  English    Metric   Both
« Previous Day
Next Day »
Daily Weekly Monthly Yearly Custom
  High: Low: Average:
Temperature: 46.0 °F 32.7 °F 37.9 °F
Dew Point: 40.3 °F 30.7 °F 34.4 °F
Humidity: 97 % 67 % 88 %
Wind Speed: 18.0 mph 0.0 mph 4.6 mph
Wind Gust: 27.0 mph - -
Wind:- - WSW
Pressure: 29.53 in 29.16 in -
Precipitation: 0.27 in    
Historical Graphs
 
 
Tabular Data for March 8, 2018
Time Temperature Dew Point Pressure Wind Wind Speed Wind Gust Humidity Rainfall Rate (Hourly) solar Conditions
00:00 34.9 °F 32.2 °F 29.34 in SSW 3.0 mph 6.0 mph 90 % 0.00 in 0 W/m2
00:05 35.2 °F 32.6 °F 29.33 in SSW 2.0 mph 5.0 mph 90 % 0.00 in 0 W/m2
00:10 35.2 °F 32.3 °F 29.33 in SSW 1.0 mph 4.0 mph 89 % 0.00 in 0 W/m2
00:15 35.2 °F 32.3 °F 29.33 in SSW 2.0 mph 4.0 mph 89 % 0.00 in 0 W/m2
00:20 35.1 °F 31.9 °F 29.33 in South 2.0 mph 4.0 mph 88 % 0.00 in 0 W/m2
00:25 34.5 °F 31.0 °F 29.33 in SE 3.0 mph 6.0 mph 87 % 0.00 in 0 W/m2
00:30 34.2 °F 31.0 °F 29.33 in SE 3.0 mph 6.0 mph 88 % 0.00 in 0 W/m2
00:35 34.2 °F 31.3 °F 29.33 in SSE 2.0 mph 5.0 mph 89 % 0.00 in 0 W/m2
00:40 34.2 °F 31.3 °F 29.33 in SSE 3.0 mph 5.0 mph 89 % 0.00 in 0 W/m2
00:45 34.2 °F 31.3 °F 29.33 in SSE 3.0 mph 7.0 mph 89 % 0.00 in 0 W/m2
00:50 34.2 °F 31.5 °F 29.33 in South 2.0 mph 4.0 mph 90 % 0.00 in 0 W/m2
00:55 34.0 °F 31.4 °F 29.33 in South 2.0 mph 4.0 mph 90 % 0.00 in 0 W/m2
01:00 34.0 °F 31.4 °F 29.32 in South 3.0 mph 5.0 mph 90 % 0.00 in 0 W/m2
01:05 34.0 °F 31.4 °F 29.32 in SSW 4.0 mph 6.0 mph 90 % 0.00 in 0 W/m2
01:10 34.2 °F 31.8 °F 29.31 in SSW 2.0 mph 5.0 mph 91 % 0.00 in 0 W/m2
01:15 34.3 °F 32.0 °F 29.31 in Calm   3.0 mph 91 % 0.00 in 0 W/m2
01:20 34.2 °F 31.5 °F 29.30 in Calm   1.0 mph 90 % 0.00 in 0 W/m2
01:25 34.2 °F 31.5 °F 29.30 in Calm   1.0 mph 90 % 0.00 in 0 W/m2
01:30 33.8 °F 31.2 °F 29.30 in SSW 1.0 mph 4.0 mph 90 % 0.00 in 0 W/m2
01:35 33.6 °F 31.0 °F 29.30 in SE 4.0 mph 5.0 mph 90 % 0.00 in 0 W/m2
01:40 33.4 °F 30.8 °F 29.30 in SE 1.0 mph 2.0 mph 90 % 0.00 in 0 W/m2
01:45 33.4 °F 31.1 °F 29.30 in SE 1.0 mph 3.0 mph 91 % 0.00 in 0 W/m2
01:50 33.6 °F 31.3 °F 29.30 in SE 1.0 mph 4.0 mph 91 % 0.00 in 0 W/m2
01:55 33.6 °F 31.3 °F 29.30 in SE 1.0 mph 5.0 mph 91 % 0.00 in 0 W/m2
02:00 33.6 °F 31.3 °F 29.30 in Calm   1.0 mph 91 % 0.00 in 0 W/m2
02:05 33.4 °F 31.1 °F 29.30 in SE 1.0 mph 2.0 mph 91 % 0.00 in 0 W/m2
02:10 33.3 °F 30.9 °F 29.29 in Calm   2.0 mph 91 % 0.00 in 0 W/m2
02:15 33.3 °F 30.9 °F 29.29 in Calm   2.0 mph 91 % 0.00 in 0 W/m2
02:20 33.3 °F 30.9 °F 29.29 in SE 1.0 mph 3.0 mph 91 % 0.00 in 0 W/m2
02:25 33.1 °F 31.0 °F 29.29 in SE 1.0 mph 3.0 mph 92 % 0.00 in 0 W/m2
02:30 33.1 °F 31.0 °F 29.28 in Calm   1.0 mph 92 % 0.00 in 0 W/m2
02:35 33.3 °F 31.2 °F 29.28 in Calm     92 % 0.00 in 0 W/m2
02:40 33.1 °F 31.0 °F 29.28 in ESE 1.0 mph 2.0 mph 92 % 0.00 in 0 W/m2
02:45 33.1 °F 31.0 °F 29.28 in Calm   2.0 mph 92 % 0.00 in 0 W/m2
02:50 33.1 °F 31.0 °F 29.27 in ESE 1.0 mph 4.0 mph 92 % 0.00 in 0 W/m2
02:55 32.7 °F 30.7 °F 29.27 in ESE 1.0 mph 2.0 mph 92 % 0.00 in 0 W/m2
03:00 32.7 °F 30.7 °F 29.26 in Calm   1.0 mph 92 % 0.00 in 0 W/m2
03:05 32.7 °F 30.7 °F 29.26 in Calm   1.0 mph 92 % 0.00 in 0 W/m2
03:10 32.7 °F 30.7 °F 29.26 in Calm   1.0 mph 92 % 0.00 in 0 W/m2
03:15 32.7 °F 30.9 °F 29.25 in East 1.0 mph 4.0 mph 93 % 0.00 in 0 W/m2
03:20 33.1 °F 31.3 °F 29.25 in ENE 1.0 mph 3.0 mph 93 % 0.00 in 0 W/m2
03:25 33.3 °F 31.5 °F 29.25 in ENE 2.0 mph 4.0 mph 93 % 0.00 in 0 W/m2
03:30 33.4 °F 31.6 °F 29.25 in ENE 1.0 mph 5.0 mph 93 % 0.00 in 0 W/m2
03:35 33.6 °F 31.8 °F 29.24 in ENE 2.0 mph 5.0 mph 93 % 0.00 in 0 W/m2
03:40 33.8 °F 32.0 °F 29.24 in ENE 1.0 mph 2.0 mph 93 % 0.00 in 0 W/m2
03:45 33.6 °F 31.5 °F 29.24 in Calm     92 % 0.00 in 0 W/m2
03:50 33.4 °F 31.4 °F 29.24 in Calm   2.0 mph 92 % 0.00 in 0 W/m2
03:55 33.4 °F 31.6 °F 29.23 in Calm   1.0 mph 93 % 0.00 in 0 W/m2
04:00 33.6 °F 31.8 °F 29.23 in ENE 1.0 mph 4.0 mph 93 % 0.00 in 0 W/m2
04:05 34.0 °F 32.2 °F 29.23 in ENE 2.0 mph 4.0 mph 93 % 0.00 in 0 W/m2
04:10 34.2 °F 32.3 °F 29.23 in ENE 1.0 mph 2.0 mph 93 % 0.00 in 0 W/m2
04:15 34.3 °F 32.8 °F 29.22 in ENE 1.0 mph 4.0 mph 94 % 0.00 in 0 W/m2
04:20 34.5 °F 32.7 °F 29.22 in ENE 1.0 mph 2.0 mph 93 % 0.00 in 0 W/m2
04:25 34.5 °F 32.7 °F 29.22 in East 3.0 mph 6.0 mph 93 % 0.00 in 0 W/m2
04:30 34.5 °F 32.7 °F 29.22 in East 1.0 mph 4.0 mph 93 % 0.00 in 0 W/m2
04:35 34.7 °F 32.9 °F 29.21 in East 1.0 mph 2.0 mph 93 % 0.00 in 0 W/m2
04:40 34.7 °F 32.9 °F 29.21 in Calm   4.0 mph 93 % 0.00 in 0 W/m2
04:45 34.7 °F 32.9 °F 29.21 in ENE 1.0 mph 2.0 mph 93 % 0.00 in 0 W/m2
04:50 34.7 °F 32.9 °F 29.21 in Calm   3.0 mph 93 % 0.01 in 0 W/m2
04:55 34.5 °F 32.7 °F 29.20 in ENE 1.0 mph 4.0 mph 93 % 0.01 in 0 W/m2
05:00 34.5 °F 32.7 °F 29.20 in Calm   2.0 mph 93 % 0.01 in 0 W/m2
05:05 34.5 °F 32.7 °F 29.20 in ENE 1.0 mph 2.0 mph 93 % 0.01 in 0 W/m2
05:10 34.3 °F 32.5 °F 29.20 in East 2.0 mph 4.0 mph 93 % 0.02 in 0 W/m2
05:15 34.2 °F 32.3 °F 29.20 in ENE 1.0 mph 3.0 mph 93 % 0.02 in 0 W/m2
05:20 34.0 °F 32.2 °F 29.19 in ENE 1.0 mph 4.0 mph 93 % 0.02 in 0 W/m2
05:25 33.8 °F 32.0 °F 29.19 in ENE 1.0 mph 2.0 mph 93 % 0.02 in 0 W/m2
05:30 33.6 °F 32.1 °F 29.19 in ENE 1.0 mph 3.0 mph 94 % 0.02 in 0 W/m2
05:36 33.6 °F 32.1 °F 29.19 in ENE 1.0 mph 4.0 mph 94 % 0.02 in 0 W/m2
05:41 33.4 °F 31.9 °F 29.19 in ENE 1.0 mph 3.0 mph 94 % 0.02 in 0 W/m2
05:46 33.4 °F 31.9 °F 29.18 in ENE 1.0 mph 4.0 mph 94 % 0.02 in 0 W/m2
05:51 33.4 °F 31.9 °F 29.18 in ENE 1.0 mph 4.0 mph 94 % 0.01 in 0 W/m2
05:56 33.4 °F 31.9 °F 29.18 in Calm   1.0 mph 94 % 0.01 in 0 W/m2
06:01 33.4 °F 31.9 °F 29.18 in ENE 1.0 mph 3.0 mph 94 % 0.01 in 0 W/m2
06:06 33.4 °F 31.9 °F 29.17 in ENE 1.0 mph 2.0 mph 94 % 0.01 in 0 W/m2
06:11 33.4 °F 32.2 °F 29.17 in Calm   2.0 mph 95 % 0.00 in 0 W/m2
06:16 33.4 °F 32.2 °F 29.17 in Calm   2.0 mph 95 % 0.00 in 0 W/m2
06:21 33.4 °F 32.2 °F 29.17 in Calm   1.0 mph 95 % 0.01 in 0 W/m2
06:26 33.4 °F 32.2 °F 29.17 in Calm     95 % 0.01 in 0 W/m2
06:31 33.4 °F 32.2 °F 29.17 in Calm     95 % 0.01 in 0 W/m2
06:36 33.4 °F 32.2 °F 29.17 in Calm   1.0 mph 95 % 0.02 in 0 W/m2
06:41 33.4 °F 32.2 °F 29.17 in Calm     95 % 0.02 in 0 W/m2
06:46 33.4 °F 32.2 °F 29.17 in Calm   1.0 mph 95 % 0.02 in 0 W/m2
06:51 33.4 °F 32.2 °F 29.16 in Calm   1.0 mph 95 % 0.02 in 0 W/m2
06:56 33.4 °F 32.2 °F 29.16 in ENE 2.0 mph 5.0 mph 95 % 0.02 in 5 W/m2
07:01 33.4 °F 32.2 °F 29.16 in Calm     95 % 0.02 in 5 W/m2
07:06 33.4 °F 32.2 °F 29.16 in Calm     95 % 0.03 in 7 W/m2
07:11 33.4 °F 32.2 °F 29.16 in Calm     95 % 0.03 in 7 W/m2
07:16 33.4 °F 32.2 °F 29.16 in Calm     95 % 0.04 in 7 W/m2
07:21 33.4 °F 32.2 °F 29.16 in Calm   1.0 mph 95 % 0.03 in 9 W/m2
07:26 33.4 °F 32.2 °F 29.16 in Calm     95 % 0.03 in 11 W/m2
07:31 33.4 °F 32.2 °F 29.16 in Calm   2.0 mph 95 % 0.03 in 11 W/m2
07:36 33.4 °F 32.2 °F 29.16 in Calm   1.0 mph 95 % 0.03 in 12 W/m2
07:41 33.4 °F 32.2 °F 29.16 in Calm     95 % 0.03 in 12 W/m2
07:46 33.4 °F 32.2 °F 29.16 in Calm     95 % 0.02 in 16 W/m2
07:51 33.4 °F 32.2 °F 29.16 in Calm     95 % 0.03 in 16 W/m2
07:56 33.6 °F 32.3 °F 29.16 in Calm     95 % 0.03 in 16 W/m2
08:01 33.6 °F 32.3 °F 29.16 in ENE 1.0 mph 2.0 mph 95 % 0.03 in 18 W/m2
08:06 33.6 °F 32.3 °F 29.16 in Calm     95 % 0.03 in 21 W/m2
08:11 33.6 °F 32.3 °F 29.16 in Calm     95 % 0.03 in 23 W/m2
08:16 33.6 °F 32.6 °F 29.16 in Calm     96 % 0.03 in 25 W/m2
08:21 33.6 °F 32.6 °F 29.16 in Calm     96 % 0.03 in 28 W/m2
08:26 33.6 °F 32.6 °F 29.16 in NNW 1.0 mph 5.0 mph 96 % 0.03 in 32 W/m2
08:31 33.8 °F 32.8 °F 29.16 in Calm   4.0 mph 96 % 0.04 in 30 W/m2
08:36 34.0 °F 33.0 °F 29.16 in NNW 2.0 mph 5.0 mph 96 % 0.03 in 28 W/m2
08:41 34.0 °F 33.0 °F 29.17 in NNW 3.0 mph 6.0 mph 96 % 0.03 in 26 W/m2
08:46 34.0 °F 33.0 °F 29.17 in NW 1.0 mph 5.0 mph 96 % 0.04 in 25 W/m2
08:51 33.8 °F 32.8 °F 29.16 in NW 1.0 mph 3.0 mph 96 % 0.03 in 23 W/m2
08:56 33.8 °F 32.8 °F 29.16 in NW 1.0 mph 4.0 mph 96 % 0.03 in 23 W/m2
09:01 33.6 °F 32.6 °F 29.16 in WNW 3.0 mph 6.0 mph 96 % 0.03 in 23 W/m2
09:06 33.6 °F 32.6 °F 29.17 in WNW 3.0 mph 5.0 mph 96 % 0.02 in 25 W/m2
09:11 33.6 °F 32.6 °F 29.17 in NW 3.0 mph 7.0 mph 96 % 0.03 in 28 W/m2
09:16 33.6 °F 32.6 °F 29.17 in NW 3.0 mph 7.0 mph 96 % 0.02 in 32 W/m2
09:21 33.6 °F 32.6 °F 29.17 in NW 3.0 mph 7.0 mph 96 % 0.02 in 32 W/m2
09:26 33.6 °F 32.6 °F 29.17 in NW 6.0 mph 8.0 mph 96 % 0.03 in 32 W/m2
09:31 33.6 °F 32.6 °F 29.17 in NW 5.0 mph 9.0 mph 96 % 0.02 in 26 W/m2
09:36 33.6 °F 32.6 °F 29.18 in NW 5.0 mph 9.0 mph 96 % 0.02 in 21 W/m2
09:42 33.6 °F 32.6 °F 29.18 in WNW 6.0 mph 10.0 mph 96 % 0.02 in 25 W/m2
09:47 33.6 °F 32.6 °F 29.18 in NW 5.0 mph 8.0 mph 96 % 0.02 in 28 W/m2
09:52 33.8 °F 32.8 °F 29.19 in NW 4.0 mph 8.0 mph 96 % 0.02 in 40 W/m2
09:57 33.8 °F 32.8 °F 29.19 in NW 4.0 mph 8.0 mph 96 % 0.03 in 76 W/m2
10:02 34.0 °F 33.0 °F 29.19 in NW 3.0 mph 7.0 mph 96 % 0.03 in 70 W/m2
10:07 34.2 °F 33.1 °F 29.20 in NW 5.0 mph 9.0 mph 96 % 0.03 in 102 W/m2
10:12 34.3 °F 33.3 °F 29.20 in NW 6.0 mph 10.0 mph 96 % 0.03 in 77 W/m2
10:17 34.3 °F 33.3 °F 29.20 in NW 6.0 mph 10.0 mph 96 % 0.03 in 69 W/m2
10:22 34.3 °F 33.3 °F 29.21 in NW 7.0 mph 11.0 mph 96 % 0.04 in 95 W/m2
10:27 34.3 °F 33.3 °F 29.21 in NW 5.0 mph 8.0 mph 96 % 0.03 in 118 W/m2
10:32 34.3 °F 33.3 °F 29.22 in WNW 8.0 mph 13.0 mph 96 % 0.04 in 134 W/m2
10:37 34.5 °F 33.5 °F 29.22 in NW 5.0 mph 10.0 mph 96 % 0.04 in 151 W/m2
10:42 34.7 °F 33.7 °F 29.22 in WNW 9.0 mph 14.0 mph 96 % 0.04 in 160 W/m2
10:47 34.7 °F 33.7 °F 29.23 in WNW 9.0 mph 13.0 mph 96 % 0.05 in 190 W/m2
10:52 34.9 °F 33.9 °F 29.23 in WNW 7.0 mph 12.0 mph 96 % 0.06 in 206 W/m2
10:57 35.1 °F 34.0 °F 29.23 in WNW 9.0 mph 12.0 mph 96 % 0.05 in 123 W/m2
11:02 35.1 °F 34.0 °F 29.23 in WNW 9.0 mph 13.0 mph 96 % 0.06 in 105 W/m2
11:07 35.1 °F 34.0 °F 29.24 in WNW 8.0 mph 11.0 mph 96 % 0.06 in 107 W/m2
11:12 35.1 °F 34.0 °F 29.24 in WNW 7.0 mph 11.0 mph 96 % 0.06 in 118 W/m2
11:17 35.2 °F 34.2 °F 29.24 in NW 7.0 mph 11.0 mph 96 % 0.06 in 165 W/m2
11:22 35.4 °F 34.4 °F 29.25 in NW 8.0 mph 12.0 mph 96 % 0.06 in 434 W/m2
11:27 36.0 °F 34.9 °F 29.25 in WNW 7.0 mph 12.0 mph 96 % 0.06 in 424 W/m2
11:32 36.7 °F 35.9 °F 29.25 in WNW 8.0 mph 12.0 mph 97 % 0.06 in 543 W/m2
11:37 37.6 °F 36.8 °F 29.25 in WNW 12.0 mph 18.0 mph 97 % 0.06 in 540 W/m2
11:42 38.1 °F 37.3 °F 29.25 in WNW 9.0 mph 14.0 mph 97 % 0.06 in 503 W/m2
11:47 38.7 °F 37.6 °F 29.25 in WNW 12.0 mph 22.0 mph 96 % 0.06 in 316 W/m2
11:52 38.8 °F 37.8 °F 29.26 in WNW 13.0 mph 23.0 mph 96 % 0.06 in 424 W/m2
11:57 39.2 °F 38.2 °F 29.26 in WNW 16.0 mph 25.0 mph 96 % 0.06 in 476 W/m2
12:02 39.6 °F 38.2 °F 29.26 in WNW 13.0 mph 25.0 mph 95 % 0.06 in 621 W/m2
12:07 39.9 °F 38.6 °F 29.27 in WNW 18.0 mph 27.0 mph 95 % 0.06 in 236 W/m2
12:12 39.7 °F 37.9 °F 29.27 in WNW 14.0 mph 21.0 mph 93 % 0.06 in 139 W/m2
12:17 39.4 °F 37.2 °F 29.28 in WNW 14.0 mph 22.0 mph 92 % 0.06 in 163 W/m2
12:22 39.2 °F 37.1 °F 29.28 in WNW 14.0 mph 22.0 mph 92 % 0.06 in 236 W/m2
12:27 39.2 °F 37.1 °F 29.28 in WNW 13.0 mph 20.0 mph 92 % 0.05 in 323 W/m2
12:32 39.4 °F 37.2 °F 29.29 in WNW 12.0 mph 23.0 mph 92 % 0.04 in 127 W/m2
12:37 39.4 °F 37.2 °F 29.29 in WNW 10.0 mph 18.0 mph 92 % 0.03 in 153 W/m2
12:42 39.4 °F 37.2 °F 29.29 in WNW 8.0 mph 12.0 mph 92 % 0.03 in 452 W/m2
12:47 39.9 °F 37.8 °F 29.29 in WNW 10.0 mph 14.0 mph 92 % 0.02 in 640 W/m2
12:52 40.8 °F 38.7 °F 29.30 in WNW 9.0 mph 13.0 mph 92 % 0.02 in 360 W/m2
12:57 41.5 °F 39.1 °F 29.30 in WNW 15.0 mph 25.0 mph 91 % 0.02 in 279 W/m2
13:02 41.5 °F 38.8 °F 29.30 in WNW 11.0 mph 20.0 mph 90 % 0.01 in 262 W/m2
13:07 41.9 °F 38.9 °F 29.30 in WNW 10.0 mph 18.0 mph 89 % 0.01 in 744 W/m2
13:12 42.6 °F 39.9 °F 29.31 in WNW 10.0 mph 18.0 mph 90 % 0.02 in 800 W/m2
13:17 43.3 °F 40.3 °F 29.31 in WNW 13.0 mph 20.0 mph 89 % 0.01 in 684 W/m2
13:22 43.7 °F 40.1 °F 29.31 in WNW 11.0 mph 19.0 mph 87 % 0.01 in 580 W/m2
13:27 44.1 °F 40.1 °F 29.31 in WNW 12.0 mph 22.0 mph 86 % 0.01 in 568 W/m2
13:32 44.2 °F 40.0 °F 29.31 in WNW 11.0 mph 19.0 mph 85 % 0.01 in 550 W/m2
13:37 44.4 °F 39.9 °F 29.31 in WNW 10.0 mph 16.0 mph 84 % 0.01 in 541 W/m2
13:42 44.4 °F 39.3 °F 29.32 in WNW 13.0 mph 25.0 mph 82 % 0.01 in 536 W/m2
13:47 44.4 °F 39.0 °F 29.32 in WNW 14.0 mph 22.0 mph 81 % 0.01 in 529 W/m2
13:52 44.6 °F 38.8 °F 29.32 in WNW 17.0 mph 27.0 mph 80 % 0.01 in 524 W/m2
13:57 44.4 °F 38.3 °F 29.32 in WNW 17.0 mph 25.0 mph 79 % 0.01 in 517 W/m2
14:02 44.4 °F 38.0 °F 29.33 in WNW 17.0 mph 25.0 mph 78 % 0.01 in 506 W/m2
14:07 44.8 °F 38.7 °F 29.33 in WNW 12.0 mph 20.0 mph 79 % 0.01 in 497 W/m2
14:12 44.8 °F 38.7 °F 29.33 in WNW 14.0 mph 21.0 mph 79 % 0.00 in 489 W/m2
14:17 45.0 °F 38.8 °F 29.33 in WNW 13.0 mph 21.0 mph 79 % 0.00 in 483 W/m2
14:22 45.0 °F 38.5 °F 29.33 in West 14.0 mph 20.0 mph 78 % 0.00 in 473 W/m2
14:27 45.1 °F 38.4 °F 29.33 in West 15.0 mph 23.0 mph 77 % 0.00 in 473 W/m2
14:33 45.1 °F 38.0 °F 29.34 in West 15.0 mph 21.0 mph 76 % 0.00 in 475 W/m2
14:38 45.3 °F 38.2 °F 29.34 in West 14.0 mph 26.0 mph 76 % 0.00 in 448 W/m2
14:43 45.5 °F 37.7 °F 29.35 in WNW 15.0 mph 24.0 mph 74 % 0.00 in 436 W/m2
14:48 45.7 °F 37.5 °F 29.35 in West 12.0 mph 23.0 mph 73 % 0.00 in 425 W/m2
14:53 45.7 °F 37.2 °F 29.35 in WNW 16.0 mph 25.0 mph 72 % 0.00 in 432 W/m2
14:58 45.7 °F 37.2 °F 29.35 in West 12.0 mph 19.0 mph 72 % 0.00 in 411 W/m2
15:03 45.9 °F 37.0 °F 29.35 in WNW 14.0 mph 22.0 mph 71 % 0.00 in 397 W/m2
15:08 45.9 °F 36.3 °F 29.35 in West 12.0 mph 19.0 mph 69 % 0.00 in 385 W/m2
15:13 46.0 °F 35.7 °F 29.36 in West 14.0 mph 23.0 mph 67 % 0.00 in 376 W/m2
15:18 45.9 °F 35.5 °F 29.36 in West 13.0 mph 23.0 mph 67 % 0.00 in 350 W/m2
15:23 45.9 °F 35.9 °F 29.36 in West 10.0 mph 16.0 mph 68 % 0.00 in 348 W/m2
15:28 45.7 °F 35.3 °F 29.36 in West 13.0 mph 20.0 mph 67 % 0.00 in 144 W/m2
15:33 45.3 °F 35.4 °F 29.37 in West 12.0 mph 20.0 mph 68 % 0.00 in 323 W/m2
15:38 45.1 °F 34.8 °F 29.37 in West 13.0 mph 19.0 mph 67 % 0.00 in 54 W/m2
15:43 44.8 °F 35.2 °F 29.37 in West 11.0 mph 15.0 mph 69 % 0.00 in 72 W/m2
15:48 44.2 °F 35.1 °F 29.37 in West 13.0 mph 19.0 mph 70 % 0.00 in 104 W/m2
15:53 44.1 °F 35.3 °F 29.37 in WNW 11.0 mph 19.0 mph 71 % 0.00 in 109 W/m2
15:58 44.1 °F 35.6 °F 29.38 in WNW 10.0 mph 14.0 mph 72 % 0.00 in 134 W/m2
16:03 43.9 °F 35.4 °F 29.38 in WNW 11.0 mph 16.0 mph 72 % 0.00 in 56 W/m2
16:08 43.9 °F 35.8 °F 29.38 in West 7.0 mph 12.0 mph 73 % 0.00 in 200 W/m2
16:13 43.7 °F 36.0 °F 29.38 in WNW 6.0 mph 10.0 mph 74 % 0.00 in 72 W/m2
16:18 43.9 °F 36.1 °F 29.37 in WNW 6.0 mph 11.0 mph 74 % 0.00 in 216 W/m2
16:23 43.9 °F 36.1 °F 29.38 in WNW 10.0 mph 15.0 mph 74 % 0.00 in 37 W/m2
16:28 43.9 °F 35.8 °F 29.38 in WNW 9.0 mph 12.0 mph 73 % 0.00 in 65 W/m2
16:33 43.7 °F 35.6 °F 29.38 in West 7.0 mph 11.0 mph 73 % 0.00 in 67 W/m2
16:38 43.7 °F 36.0 °F 29.38 in West 6.0 mph 10.0 mph 74 % 0.00 in 69 W/m2
16:43 43.7 °F 36.0 °F 29.38 in West 3.0 mph 6.0 mph 74 % 0.00 in 53 W/m2
16:48 43.7 °F 36.0 °F 29.38 in West 5.0 mph 9.0 mph 74 % 0.00 in 35 W/m2
16:53 43.5 °F 35.8 °F 29.39 in Calm   2.0 mph 74 % 0.00 in 54 W/m2
16:58 43.5 °F 35.8 °F 29.39 in Calm     74 % 0.00 in 47 W/m2
17:03 43.5 °F 35.8 °F 29.39 in Calm     74 % 0.00 in 46 W/m2
17:08 43.5 °F 36.1 °F 29.39 in Calm     75 % 0.00 in 53 W/m2
17:13 43.3 °F 36.3 °F 29.40 in WNW 1.0 mph 2.0 mph 76 % 0.00 in 42 W/m2
17:18 43.3 °F 36.3 °F 29.40 in Calm   2.0 mph 76 % 0.00 in 47 W/m2
17:23 43.3 °F 36.3 °F 29.40 in Calm   2.0 mph 76 % 0.00 in 49 W/m2
17:28 43.3 °F 36.3 °F 29.40 in Calm   2.0 mph 76 % 0.00 in 26 W/m2
17:33 43.2 °F 36.1 °F 29.40 in SW 2.0 mph 4.0 mph 76 % 0.00 in 14 W/m2
17:38 43.2 °F 36.1 °F 29.40 in Calm   1.0 mph 76 % 0.00 in 11 W/m2
17:43 43.2 °F 36.1 °F 29.40 in SW 1.0 mph 3.0 mph 76 % 0.00 in 5 W/m2
17:48 43.0 °F 36.3 °F 29.41 in SW 1.0 mph 2.0 mph 77 % 0.00 in 0 W/m2
17:53 43.0 °F 36.6 °F 29.41 in SW 1.0 mph 3.0 mph 78 % 0.00 in 0 W/m2
17:58 43.2 °F 36.4 °F 29.41 in SW 3.0 mph 5.0 mph 77 % 0.00 in 0 W/m2
18:03 43.0 °F 36.3 °F 29.42 in SW 2.0 mph 5.0 mph 77 % 0.00 in 0 W/m2
18:08 43.0 °F 36.6 °F 29.42 in WSW 5.0 mph 11.0 mph 78 % 0.00 in 0 W/m2
18:13 42.8 °F 36.4 °F 29.42 in WSW 5.0 mph 10.0 mph 78 % 0.00 in 0 W/m2
18:18 42.6 °F 36.6 °F 29.42 in West 6.0 mph 9.0 mph 79 % 0.00 in 0 W/m2
18:23 42.6 °F 36.9 °F 29.43 in WSW 5.0 mph 7.0 mph 80 % 0.00 in 0 W/m2
18:28 42.4 °F 37.0 °F 29.43 in WSW 6.0 mph 11.0 mph 81 % 0.00 in 0 W/m2
18:33 42.4 °F 37.6 °F 29.43 in WSW 3.0 mph 6.0 mph 83 % 0.00 in 0 W/m2
18:38 42.1 °F 37.6 °F 29.43 in WSW 4.0 mph 7.0 mph 84 % 0.00 in 0 W/m2
18:43 41.7 °F 37.2 °F 29.43 in WSW 2.0 mph 5.0 mph 84 % 0.00 in 0 W/m2
18:48 41.5 °F 37.1 °F 29.43 in Calm     84 % 0.00 in 0 W/m2
18:53 41.5 °F 37.4 °F 29.44 in Calm   2.0 mph 85 % 0.00 in 0 W/m2
18:58 41.4 °F 37.2 °F 29.44 in WSW 1.0 mph 2.0 mph 85 % 0.00 in 0 W/m2
19:03 41.2 °F 37.3 °F 29.44 in WSW 3.0 mph 5.0 mph 86 % 0.00 in 0 W/m2
19:08 40.8 °F 37.0 °F 29.45 in West 4.0 mph 6.0 mph 86 % 0.00 in 0 W/m2
19:13 40.6 °F 36.8 °F 29.45 in West 5.0 mph 10.0 mph 86 % 0.00 in 0 W/m2
19:18 40.6 °F 37.1 °F 29.45 in West 2.0 mph 5.0 mph 87 % 0.00 in 0 W/m2
19:24 40.5 °F 36.9 °F 29.45 in West 2.0 mph 4.0 mph 87 % 0.00 in 0 W/m2
19:29 40.3 °F 36.7 °F 29.45 in West 3.0 mph 5.0 mph 87 % 0.00 in 0 W/m2
19:34 39.9 °F 36.4 °F 29.46 in West 3.0 mph 5.0 mph 87 % 0.00 in 0 W/m2
19:39 39.9 °F 36.7 °F 29.46 in West 3.0 mph 6.0 mph 88 % 0.00 in 0 W/m2
19:44 39.7 °F 36.5 °F 29.46 in West 4.0 mph 6.0 mph 88 % 0.00 in 0 W/m2
19:49 39.7 °F 36.5 °F 29.46 in WNW 4.0 mph 6.0 mph 88 % 0.00 in 0 W/m2
19:54 39.6 °F 36.3 °F 29.46 in WNW 5.0 mph 6.0 mph 88 % 0.00 in 0 W/m2
19:59 39.6 °F 36.3 °F 29.47 in West 4.0 mph 5.0 mph 88 % 0.00 in 0 W/m2
20:04 39.4 °F 36.1 °F 29.47 in West 5.0 mph 8.0 mph 88 % 0.00 in 0 W/m2
20:09 39.4 °F 36.4 °F 29.47 in West 6.0 mph 9.0 mph 89 % 0.00 in 0 W/m2
20:14 39.2 °F 35.9 °F 29.47 in West 5.0 mph 8.0 mph 88 % 0.00 in 0 W/m2
20:19 39.4 °F 36.1 °F 29.47 in West 6.0 mph 10.0 mph 88 % 0.00 in 0 W/m2
20:24 39.4 °F 36.1 °F 29.47 in West 3.0 mph 8.0 mph 88 % 0.00 in 0 W/m2
20:29 39.4 °F 36.1 °F 29.48 in West 4.0 mph 7.0 mph 88 % 0.00 in 0 W/m2
20:34 39.2 °F 35.7 °F 29.48 in WNW 3.0 mph 7.0 mph 87 % 0.00 in 0 W/m2
20:39 39.4 °F 35.8 °F 29.48 in West 4.0 mph 8.0 mph 87 % 0.00 in 0 W/m2
20:44 39.4 °F 35.8 °F 29.48 in West 4.0 mph 7.0 mph 87 % 0.00 in 0 W/m2
20:49 39.6 °F 36.0 °F 29.48 in West 4.0 mph 8.0 mph 87 % 0.00 in 0 W/m2
20:54 39.6 °F 36.0 °F 29.48 in West 6.0 mph 14.0 mph 87 % 0.00 in 0 W/m2
20:59 39.7 °F 36.2 °F 29.48 in WNW 7.0 mph 13.0 mph 87 % 0.00 in 0 W/m2
21:04 39.7 °F 35.9 °F 29.48 in WNW 9.0 mph 18.0 mph 86 % 0.00 in 0 W/m2
21:09 39.9 °F 35.8 °F 29.49 in West 8.0 mph 14.0 mph 85 % 0.00 in 0 W/m2
21:14 39.9 °F 35.5 °F 29.49 in West 6.0 mph 10.0 mph 84 % 0.00 in 0 W/m2
21:19 39.9 °F 35.2 °F 29.49 in West 5.0 mph 8.0 mph 83 % 0.00 in 0 W/m2
21:20 39.9 °F 35.2 °F 29.49 in West 6.0 mph 9.0 mph 83 % 0.00 in 0 W/m2
21:25 39.7 °F 35.0 °F 29.49 in West 4.0 mph 7.0 mph 83 % 0.00 in 0 W/m2
21:30 39.7 °F 35.0 °F 29.49 in West 6.0 mph 10.0 mph 83 % 0.00 in 0 W/m2
21:35 39.7 °F 35.0 °F 29.49 in West 7.0 mph 13.0 mph 83 % 0.00 in 0 W/m2
21:40 39.6 °F 34.8 °F 29.49 in WNW 3.0 mph 8.0 mph 83 % 0.00 in 0 W/m2
21:45 39.6 °F 34.8 °F 29.50 in West 5.0 mph 10.0 mph 83 % 0.00 in 0 W/m2
21:50 39.6 °F 34.8 °F 29.50 in WNW 2.0 mph 6.0 mph 83 % 0.00 in 0 W/m2
21:55 39.6 °F 34.8 °F 29.50 in WNW 1.0 mph 4.0 mph 83 % 0.00 in 0 W/m2
22:00 39.4 °F 34.6 °F 29.50 in WNW 2.0 mph 5.0 mph 83 % 0.00 in 0 W/m2
22:05 39.2 °F 34.5 °F 29.50 in West 4.0 mph 8.0 mph 83 % 0.00 in 0 W/m2
22:10 39.2 °F 34.5 °F 29.50 in West 4.0 mph 8.0 mph 83 % 0.00 in 0 W/m2
22:15 39.0 °F 34.6 °F 29.51 in West 10.0 mph 16.0 mph 84 % 0.00 in 0 W/m2
22:21 39.0 °F 34.6 °F 29.51 in West 7.0 mph 11.0 mph 84 % 0.00 in 0 W/m2
22:26 39.0 °F 34.6 °F 29.51 in WNW 6.0 mph 10.0 mph 84 % 0.00 in 0 W/m2
22:31 38.8 °F 34.4 °F 29.51 in WNW 6.0 mph 8.0 mph 84 % 0.00 in 0 W/m2
22:36 38.7 °F 34.2 °F 29.51 in WNW 5.0 mph 7.0 mph 84 % 0.00 in 0 W/m2
22:41 38.7 °F 34.5 °F 29.52 in West 6.0 mph 9.0 mph 85 % 0.00 in 0 W/m2
22:46 38.5 °F 34.4 °F 29.52 in WNW 6.0 mph 8.0 mph 85 % 0.00 in 0 W/m2
22:51 38.5 °F 34.7 °F 29.52 in West 6.0 mph 8.0 mph 86 % 0.00 in 0 W/m2
22:56 38.7 °F 34.8 °F 29.52 in West 5.0 mph 7.0 mph 86 % 0.00 in 0 W/m2
23:01 38.7 °F 34.8 °F 29.52 in West 3.0 mph 5.0 mph 86 % 0.00 in 0 W/m2
23:06 38.7 °F 34.8 °F 29.52 in West 2.0 mph 6.0 mph 86 % 0.00 in 0 W/m2
23:11 38.7 °F 34.8 °F 29.52 in WSW 2.0 mph 4.0 mph 86 % 0.00 in 0 W/m2
23:16 38.7 °F 34.8 °F 29.52 in Calm   1.0 mph 86 % 0.00 in 0 W/m2
23:21 38.7 °F 34.8 °F 29.52 in Calm     86 % 0.00 in 0 W/m2
23:26 38.7 °F 34.8 °F 29.53 in WSW 1.0 mph 5.0 mph 86 % 0.00 in 0 W/m2
23:31 38.7 °F 34.8 °F 29.53 in WSW 1.0 mph 2.0 mph 86 % 0.00 in 0 W/m2
23:36 38.7 °F 34.8 °F 29.53 in West 2.0 mph 5.0 mph 86 % 0.00 in 0 W/m2
23:41 38.8 °F 35.3 °F 29.53 in WNW 4.0 mph 7.0 mph 87 % 0.00 in 0 W/m2
23:46 38.8 °F 35.3 °F 29.53 in WNW 4.0 mph 6.0 mph 87 % 0.00 in 0 W/m2
23:51 38.8 °F 35.3 °F 29.53 in West 2.0 mph 5.0 mph 87 % 0.00 in 0 W/m2
23:56 38.8 °F 35.3 °F 29.53 in West 2.0 mph 4.0 mph 87 % 0.00 in 0 W/m2
Delerius-Weather
Compliments of Weather Underground - 2.25 mb

Data updates at regular intervals.